Terminal Aerodrome Forecast
Issued by NWS Jackson, MS

Home | Current Version | Previous Version | Text Only | Print | Product List | Glossary On
Versions: 1 2 3 4 5 6 7 8 9 10 11 12 13 14 15 16 17 18
806
FTUS44 KJAN 251836
TAFGLH
TAF
KGLH 251836Z 2518/2618 21010G20KT P6SM SKC
     FM252300 19009KT P6SM SKC
     FM261500 19015G25KT P6SM FEW250=

USA.gov is the U.S. government's official web portal to all federal, state and local government web resources and services.